sensor_id;sensor_type;location;lat;lon;timestamp;P1;durP1;ratioP1;P2;durP2;ratioP2
8419;SDS011;4247;48.550;8.822;2023-03-31T00:00:52;6.63;;;0.80;;
8419;SDS011;4247;48.550;8.822;2023-03-31T00:03:22;1.13;;;0.60;;
8419;SDS011;4247;48.550;8.822;2023-03-31T00:05:49;4.40;;;0.73;;
8419;SDS011;4247;48.550;8.822;2023-03-31T00:08:20;4.10;;;1.13;;
8419;SDS011;4247;48.550;8.822;2023-03-31T00:10:46;3.07;;;0.80;;
8419;SDS011;4247;48.550;8.822;2023-03-31T00:13:13;1.97;;;0.80;;
8419;SDS011;4247;48.550;8.822;2023-03-31T00:15:41;2.43;;;0.70;;
8419;SDS011;4247;48.550;8.822;2023-03-31T00:18:08;3.80;;;0.77;;
8419;SDS011;4247;48.550;8.822;2023-03-31T00:20:35;3.33;;;1.13;;
8419;SDS011;4247;48.550;8.822;2023-03-31T00:23:02;5.63;;;0.83;;
8419;SDS011;4247;48.550;8.822;2023-03-31T00:25:34;2.27;;;0.70;;
8419;SDS011;4247;48.550;8.822;2023-03-31T00:28:04;1.73;;;0.67;;
8419;SDS011;4247;48.550;8.822;2023-03-31T00:30:31;2.50;;;0.80;;
8419;SDS011;4247;48.550;8.822;2023-03-31T00:32:59;4.37;;;0.90;;
8419;SDS011;4247;48.550;8.822;2023-03-31T00:35:26;2.77;;;0.93;;
8419;SDS011;4247;48.550;8.822;2023-03-31T00:37:53;2.27;;;0.80;;
8419;SDS011;4247;48.550;8.822;2023-03-31T00:40:22;6.53;;;1.23;;
8419;SDS011;4247;48.550;8.822;2023-03-31T00:42:48;5.70;;;0.87;;
8419;SDS011;4247;48.550;8.822;2023-03-31T00:45:26;3.27;;;0.70;;
8419;SDS011;4247;48.550;8.822;2023-03-31T00:47:56;8.13;;;1.20;;
8419;SDS011;4247;48.550;8.822;2023-03-31T00:50:34;2.57;;;0.63;;
8419;SDS011;4247;48.550;8.822;2023-03-31T00:53:06;2.13;;;0.80;;
8419;SDS011;4247;48.550;8.822;2023-03-31T00:55:39;3.10;;;0.80;;
8419;SDS011;4247;48.550;8.822;2023-03-31T00:58:07;2.20;;;1.03;;
8419;SDS011;4247;48.550;8.822;2023-03-31T01:00:38;6.17;;;1.23;;
8419;SDS011;4247;48.550;8.822;2023-03-31T01:03:06;2.90;;;0.73;;
8419;SDS011;4247;48.550;8.822;2023-03-31T01:05:36;7.57;;;1.10;;
8419;SDS011;4247;48.550;8.822;2023-03-31T01:08:07;3.33;;;1.00;;
8419;SDS011;4247;48.550;8.822;2023-03-31T01:10:39;3.57;;;1.20;;
8419;SDS011;4247;48.550;8.822;2023-03-31T01:13:10;4.43;;;0.93;;
8419;SDS011;4247;48.550;8.822;2023-03-31T01:15:38;2.00;;;0.73;;
8419;SDS011;4247;48.550;8.822;2023-03-31T01:18:08;3.13;;;1.00;;
8419;SDS011;4247;48.550;8.822;2023-03-31T01:20:39;3.87;;;0.90;;
8419;SDS011;4247;48.550;8.822;2023-03-31T01:23:24;8.23;;;1.20;;
8419;SDS011;4247;48.550;8.822;2023-03-31T01:29:19;3.97;;;1.03;;
8419;SDS011;4247;48.550;8.822;2023-03-31T01:32:17;3.80;;;0.97;;
8419;SDS011;4247;48.550;8.822;2023-03-31T01:35:20;2.30;;;1.20;;
8419;SDS011;4247;48.550;8.822;2023-03-31T01:41:07;4.00;;;0.80;;
8419;SDS011;4247;48.550;8.822;2023-03-31T01:43:43;5.70;;;1.10;;
8419;SDS011;4247;48.550;8.822;2023-03-31T01:46:16;4.43;;;1.30;;
8419;SDS011;4247;48.550;8.822;2023-03-31T01:48:53;2.57;;;0.70;;
8419;SDS011;4247;48.550;8.822;2023-03-31T01:51:28;8.13;;;1.87;;
8419;SDS011;4247;48.550;8.822;2023-03-31T01:53:59;0.93;;;0.70;;
8419;SDS011;4247;48.550;8.822;2023-03-31T01:56:33;5.10;;;0.90;;
8419;SDS011;4247;48.550;8.822;2023-03-31T01:59:04;5.03;;;0.90;;
8419;SDS011;4247;48.550;8.822;2023-03-31T02:01:38;4.07;;;0.97;;
8419;SDS011;4247;48.550;8.822;2023-03-31T02:04:12;1.17;;;0.60;;
8419;SDS011;4247;48.550;8.822;2023-03-31T02:06:44;3.57;;;0.70;;
8419;SDS011;4247;48.550;8.822;2023-03-31T02:09:14;4.83;;;2.30;;
8419;SDS011;4247;48.550;8.822;2023-03-31T02:11:46;5.20;;;1.30;;
8419;SDS011;4247;48.550;8.822;2023-03-31T02:14:15;6.43;;;0.80;;
8419;SDS011;4247;48.550;8.822;2023-03-31T02:16:46;2.70;;;0.90;;
8419;SDS011;4247;48.550;8.822;2023-03-31T02:19:22;3.40;;;0.80;;
8419;SDS011;4247;48.550;8.822;2023-03-31T02:21:53;5.07;;;1.10;;
8419;SDS011;4247;48.550;8.822;2023-03-31T02:24:22;2.63;;;0.97;;
8419;SDS011;4247;48.550;8.822;2023-03-31T02:26:55;1.60;;;0.90;;
8419;SDS011;4247;48.550;8.822;2023-03-31T02:29:29;3.20;;;1.20;;
8419;SDS011;4247;48.550;8.822;2023-03-31T02:31:58;1.63;;;1.10;;
8419;SDS011;4247;48.550;8.822;2023-03-31T02:34:29;2.33;;;0.80;;
8419;SDS011;4247;48.550;8.822;2023-03-31T02:36:58;2.63;;;1.00;;
8419;SDS011;4247;48.550;8.822;2023-03-31T02:39:26;3.77;;;1.00;;
8419;SDS011;4247;48.550;8.822;2023-03-31T02:41:58;1.47;;;0.80;;
8419;SDS011;4247;48.550;8.822;2023-03-31T02:44:30;5.90;;;0.97;;
8419;SDS011;4247;48.550;8.822;2023-03-31T02:46:57;4.80;;;1.37;;
8419;SDS011;4247;48.550;8.822;2023-03-31T02:49:24;3.30;;;0.80;;
8419;SDS011;4247;48.550;8.822;2023-03-31T02:55:03;3.43;;;1.20;;
8419;SDS011;4247;48.550;8.822;2023-03-31T02:57:51;5.07;;;1.07;;
8419;SDS011;4247;48.550;8.822;2023-03-31T03:00:31;2.73;;;1.10;;
8419;SDS011;4247;48.550;8.822;2023-03-31T03:03:13;4.40;;;1.43;;
8419;SDS011;4247;48.550;8.822;2023-03-31T03:05:49;4.97;;;4.53;;
8419;SDS011;4247;48.550;8.822;2023-03-31T03:08:27;3.43;;;2.40;;
8419;SDS011;4247;48.550;8.822;2023-03-31T03:11:01;5.43;;;1.83;;
8419;SDS011;4247;48.550;8.822;2023-03-31T03:13:34;2.73;;;1.20;;
8419;SDS011;4247;48.550;8.822;2023-03-31T03:16:05;3.10;;;1.20;;
8419;SDS011;4247;48.550;8.822;2023-03-31T03:18:37;2.27;;;1.37;;
8419;SDS011;4247;48.550;8.822;2023-03-31T03:21:04;3.67;;;1.40;;
8419;SDS011;4247;48.550;8.822;2023-03-31T03:23:31;4.80;;;1.40;;
8419;SDS011;4247;48.550;8.822;2023-03-31T03:25:58;5.40;;;1.20;;
8419;SDS011;4247;48.550;8.822;2023-03-31T03:28:25;1.90;;;1.00;;
8419;SDS011;4247;48.550;8.822;2023-03-31T03:30:53;2.90;;;1.60;;
8419;SDS011;4247;48.550;8.822;2023-03-31T03:33:21;2.83;;;1.43;;
8419;SDS011;4247;48.550;8.822;2023-03-31T03:35:49;7.77;;;1.60;;
8419;SDS011;4247;48.550;8.822;2023-03-31T03:38:15;1.50;;;1.10;;
8419;SDS011;4247;48.550;8.822;2023-03-31T03:40:42;2.47;;;1.30;;
8419;SDS011;4247;48.550;8.822;2023-03-31T03:43:09;3.97;;;1.13;;
8419;SDS011;4247;48.550;8.822;2023-03-31T03:45:36;5.53;;;1.70;;
8419;SDS011;4247;48.550;8.822;2023-03-31T03:48:04;4.20;;;1.67;;
8419;SDS011;4247;48.550;8.822;2023-03-31T03:50:34;7.67;;;1.30;;
8419;SDS011;4247;48.550;8.822;2023-03-31T03:53:02;6.60;;;1.57;;
8419;SDS011;4247;48.550;8.822;2023-03-31T03:55:28;3.23;;;1.50;;
8419;SDS011;4247;48.550;8.822;2023-03-31T03:57:55;3.67;;;1.70;;
8419;SDS011;4247;48.550;8.822;2023-03-31T04:00:22;3.63;;;1.63;;
8419;SDS011;4247;48.550;8.822;2023-03-31T04:02:49;5.80;;;1.77;;
8419;SDS011;4247;48.550;8.822;2023-03-31T04:05:17;3.90;;;1.53;;
8419;SDS011;4247;48.550;8.822;2023-03-31T04:07:44;3.70;;;2.23;;
8419;SDS011;4247;48.550;8.822;2023-03-31T04:10:11;5.87;;;1.20;;
8419;SDS011;4247;48.550;8.822;2023-03-31T04:12:38;8.00;;;2.00;;
8419;SDS011;4247;48.550;8.822;2023-03-31T04:15:05;1.90;;;1.53;;
8419;SDS011;4247;48.550;8.822;2023-03-31T04:17:32;5.23;;;1.80;;
8419;SDS011;4247;48.550;8.822;2023-03-31T04:20:00;5.07;;;1.87;;
8419;SDS011;4247;48.550;8.822;2023-03-31T04:22:34;10.03;;;2.37;;
8419;SDS011;4247;48.550;8.822;2023-03-31T04:25:05;4.70;;;2.40;;
8419;SDS011;4247;48.550;8.822;2023-03-31T04:27:40;5.23;;;3.13;;
8419;SDS011;4247;48.550;8.822;2023-03-31T04:30:11;8.57;;;2.40;;
8419;SDS011;4247;48.550;8.822;2023-03-31T04:32:46;6.17;;;1.83;;
8419;SDS011;4247;48.550;8.822;2023-03-31T04:35:14;1.63;;;1.33;;
8419;SDS011;4247;48.550;8.822;2023-03-31T04:37:43;2.63;;;1.50;;
8419;SDS011;4247;48.550;8.822;2023-03-31T04:40:10;4.97;;;1.67;;
8419;SDS011;4247;48.550;8.822;2023-03-31T04:42:36;5.37;;;1.90;;
8419;SDS011;4247;48.550;8.822;2023-03-31T04:45:03;2.70;;;1.37;;
8419;SDS011;4247;48.550;8.822;2023-03-31T04:47:31;7.87;;;1.37;;
8419;SDS011;4247;48.550;8.822;2023-03-31T04:49:57;3.67;;;1.50;;
8419;SDS011;4247;48.550;8.822;2023-03-31T04:52:24;6.70;;;1.77;;
8419;SDS011;4247;48.550;8.822;2023-03-31T04:54:52;8.47;;;2.03;;
8419;SDS011;4247;48.550;8.822;2023-03-31T04:57:19;5.37;;;2.43;;
8419;SDS011;4247;48.550;8.822;2023-03-31T04:59:45;3.47;;;1.40;;
8419;SDS011;4247;48.550;8.822;2023-03-31T05:02:12;5.20;;;1.83;;
8419;SDS011;4247;48.550;8.822;2023-03-31T05:04:40;5.17;;;2.10;;
8419;SDS011;4247;48.550;8.822;2023-03-31T05:07:06;3.80;;;1.97;;
8419;SDS011;4247;48.550;8.822;2023-03-31T05:09:33;4.73;;;3.07;;
8419;SDS011;4247;48.550;8.822;2023-03-31T05:12:01;9.27;;;3.47;;
8419;SDS011;4247;48.550;8.822;2023-03-31T05:14:28;7.90;;;3.37;;
8419;SDS011;4247;48.550;8.822;2023-03-31T05:16:54;8.17;;;2.83;;
8419;SDS011;4247;48.550;8.822;2023-03-31T05:19:23;3.83;;;3.03;;
8419;SDS011;4247;48.550;8.822;2023-03-31T05:21:50;7.90;;;4.23;;
8419;SDS011;4247;48.550;8.822;2023-03-31T05:24:16;5.30;;;3.70;;
8419;SDS011;4247;48.550;8.822;2023-03-31T05:26:43;8.27;;;3.90;;
8419;SDS011;4247;48.550;8.822;2023-03-31T05:29:15;7.53;;;3.80;;
8419;SDS011;4247;48.550;8.822;2023-03-31T05:31:41;5.67;;;3.23;;
8419;SDS011;4247;48.550;8.822;2023-03-31T05:34:08;5.17;;;4.60;;
8419;SDS011;4247;48.550;8.822;2023-03-31T05:36:35;6.43;;;4.20;;
8419;SDS011;4247;48.550;8.822;2023-03-31T05:39:02;4.87;;;2.53;;
8419;SDS011;4247;48.550;8.822;2023-03-31T05:41:29;8.13;;;2.60;;
8419;SDS011;4247;48.550;8.822;2023-03-31T05:43:56;7.87;;;2.53;;
8419;SDS011;4247;48.550;8.822;2023-03-31T05:46:24;3.37;;;2.00;;
8419;SDS011;4247;48.550;8.822;2023-03-31T05:48:51;9.30;;;3.23;;
8419;SDS011;4247;48.550;8.822;2023-03-31T05:51:18;5.77;;;2.30;;
8419;SDS011;4247;48.550;8.822;2023-03-31T05:53:45;7.57;;;2.60;;
8419;SDS011;4247;48.550;8.822;2023-03-31T05:56:11;7.20;;;2.50;;
8419;SDS011;4247;48.550;8.822;2023-03-31T05:58:38;8.07;;;2.70;;
8419;SDS011;4247;48.550;8.822;2023-03-31T06:01:05;5.00;;;2.67;;
8419;SDS011;4247;48.550;8.822;2023-03-31T06:03:35;3.20;;;2.77;;
8419;SDS011;4247;48.550;8.822;2023-03-31T06:06:04;3.40;;;1.90;;
8419;SDS011;4247;48.550;8.822;2023-03-31T06:08:32;6.43;;;2.20;;
8419;SDS011;4247;48.550;8.822;2023-03-31T06:10:59;6.30;;;2.80;;
8419;SDS011;4247;48.550;8.822;2023-03-31T06:13:28;8.37;;;3.67;;
8419;SDS011;4247;48.550;8.822;2023-03-31T06:15:55;10.67;;;5.20;;
8419;SDS011;4247;48.550;8.822;2023-03-31T06:18:23;6.67;;;3.37;;
8419;SDS011;4247;48.550;8.822;2023-03-31T06:20:54;11.93;;;2.80;;
8419;SDS011;4247;48.550;8.822;2023-03-31T06:23:21;10.07;;;2.80;;
8419;SDS011;4247;48.550;8.822;2023-03-31T06:25:48;6.10;;;2.53;;
8419;SDS011;4247;48.550;8.822;2023-03-31T06:28:15;7.00;;;2.83;;
8419;SDS011;4247;48.550;8.822;2023-03-31T06:30:42;2.33;;;2.07;;
8419;SDS011;4247;48.550;8.822;2023-03-31T06:33:09;4.70;;;2.93;;
8419;SDS011;4247;48.550;8.822;2023-03-31T06:35:37;5.80;;;2.20;;
8419;SDS011;4247;48.550;8.822;2023-03-31T06:38:06;6.53;;;2.83;;
8419;SDS011;4247;48.550;8.822;2023-03-31T06:40:33;3.20;;;2.10;;
8419;SDS011;4247;48.550;8.822;2023-03-31T06:43:00;5.73;;;2.90;;
8419;SDS011;4247;48.550;8.822;2023-03-31T06:45:27;3.93;;;2.17;;
8419;SDS011;4247;48.550;8.822;2023-03-31T06:47:53;9.70;;;2.57;;
8419;SDS011;4247;48.550;8.822;2023-03-31T06:50:20;2.97;;;2.20;;
8419;SDS011;4247;48.550;8.822;2023-03-31T06:52:47;5.80;;;2.17;;
8419;SDS011;4247;48.550;8.822;2023-03-31T06:55:18;5.07;;;1.83;;
8419;SDS011;4247;48.550;8.822;2023-03-31T06:57:44;3.27;;;1.10;;
8419;SDS011;4247;48.550;8.822;2023-03-31T07:00:11;0.67;;;0.47;;
8419;SDS011;4247;48.550;8.822;2023-03-31T07:02:39;0.73;;;0.67;;
8419;SDS011;4247;48.550;8.822;2023-03-31T07:05:06;0.60;;;0.50;;
8419;SDS011;4247;48.550;8.822;2023-03-31T07:07:33;1.33;;;0.40;;
8419;SDS011;4247;48.550;8.822;2023-03-31T07:10:00;0.83;;;0.53;;
8419;SDS011;4247;48.550;8.822;2023-03-31T07:12:28;0.73;;;0.30;;
8419;SDS011;4247;48.550;8.822;2023-03-31T07:14:58;0.90;;;0.50;;
8419;SDS011;4247;48.550;8.822;2023-03-31T07:17:25;1.67;;;0.30;;
8419;SDS011;4247;48.550;8.822;2023-03-31T07:19:51;2.03;;;0.50;;
8419;SDS011;4247;48.550;8.822;2023-03-31T07:22:18;0.20;;;0.20;;
8419;SDS011;4247;48.550;8.822;2023-03-31T07:24:45;0.70;;;0.20;;
8419;SDS011;4247;48.550;8.822;2023-03-31T07:27:11;1.50;;;0.50;;
8419;SDS011;4247;48.550;8.822;2023-03-31T07:29:39;1.50;;;0.37;;
8419;SDS011;4247;48.550;8.822;2023-03-31T07:32:06;0.20;;;0.20;;
8419;SDS011;4247;48.550;8.822;2023-03-31T07:34:33;0.20;;;0.20;;
8419;SDS011;4247;48.550;8.822;2023-03-31T07:37:00;0.40;;;0.40;;
8419;SDS011;4247;48.550;8.822;2023-03-31T07:39:27;0.30;;;0.30;;
8419;SDS011;4247;48.550;8.822;2023-03-31T07:41:53;0.30;;;0.30;;
8419;SDS011;4247;48.550;8.822;2023-03-31T07:44:20;0.80;;;0.30;;
8419;SDS011;4247;48.550;8.822;2023-03-31T07:46:48;1.37;;;0.40;;
8419;SDS011;4247;48.550;8.822;2023-03-31T07:49:15;0.77;;;0.30;;
8419;SDS011;4247;48.550;8.822;2023-03-31T07:51:42;0.40;;;0.40;;
8419;SDS011;4247;48.550;8.822;2023-03-31T07:54:08;0.63;;;0.63;;
8419;SDS011;4247;48.550;8.822;2023-03-31T07:56:35;0.77;;;0.47;;
8419;SDS011;4247;48.550;8.822;2023-03-31T07:59:02;0.27;;;0.20;;
8419;SDS011;4247;48.550;8.822;2023-03-31T08:01:29;0.30;;;0.30;;
8419;SDS011;4247;48.550;8.822;2023-03-31T08:03:57;0.53;;;0.50;;
8419;SDS011;4247;48.550;8.822;2023-03-31T08:06:24;1.87;;;0.30;;
8419;SDS011;4247;48.550;8.822;2023-03-31T08:08:51;3.83;;;0.67;;
8419;SDS011;4247;48.550;8.822;2023-03-31T08:11:18;0.70;;;0.30;;
8419;SDS011;4247;48.550;8.822;2023-03-31T08:13:45;0.30;;;0.30;;
8419;SDS011;4247;48.550;8.822;2023-03-31T08:16:12;2.73;;;0.33;;
8419;SDS011;4247;48.550;8.822;2023-03-31T08:18:38;0.83;;;0.40;;
8419;SDS011;4247;48.550;8.822;2023-03-31T08:21:07;0.87;;;0.40;;
8419;SDS011;4247;48.550;8.822;2023-03-31T08:23:34;1.83;;;0.33;;
8419;SDS011;4247;48.550;8.822;2023-03-31T08:26:08;2.17;;;0.50;;
8419;SDS011;4247;48.550;8.822;2023-03-31T08:28:36;1.07;;;0.37;;
8419;SDS011;4247;48.550;8.822;2023-03-31T08:31:03;1.83;;;1.63;;
8419;SDS011;4247;48.550;8.822;2023-03-31T08:33:30;0.87;;;0.37;;
8419;SDS011;4247;48.550;8.822;2023-03-31T08:36:00;2.40;;;0.40;;
8419;SDS011;4247;48.550;8.822;2023-03-31T08:38:29;0.33;;;0.33;;
8419;SDS011;4247;48.550;8.822;2023-03-31T08:40:58;2.47;;;0.30;;
8419;SDS011;4247;48.550;8.822;2023-03-31T08:43:26;2.43;;;0.40;;
8419;SDS011;4247;48.550;8.822;2023-03-31T08:45:58;2.93;;;1.53;;
8419;SDS011;4247;48.550;8.822;2023-03-31T08:48:27;1.27;;;0.23;;
8419;SDS011;4247;48.550;8.822;2023-03-31T08:50:57;1.70;;;0.87;;
8419;SDS011;4247;48.550;8.822;2023-03-31T08:53:30;0.40;;;0.27;;
8419;SDS011;4247;48.550;8.822;2023-03-31T08:56:01;3.07;;;0.63;;
8419;SDS011;4247;48.550;8.822;2023-03-31T08:58:34;1.70;;;0.37;;
8419;SDS011;4247;48.550;8.822;2023-03-31T09:01:06;0.97;;;0.60;;
8419;SDS011;4247;48.550;8.822;2023-03-31T09:03:43;1.23;;;0.20;;
8419;SDS011;4247;48.550;8.822;2023-03-31T09:06:22;0.27;;;0.23;;
8419;SDS011;4247;48.550;8.822;2023-03-31T09:08:58;1.10;;;0.40;;
8419;SDS011;4247;48.550;8.822;2023-03-31T09:11:29;0.20;;;0.20;;
8419;SDS011;4247;48.550;8.822;2023-03-31T09:14:12;1.37;;;0.30;;
8419;SDS011;4247;48.550;8.822;2023-03-31T09:16:47;2.47;;;0.50;;
8419;SDS011;4247;48.550;8.822;2023-03-31T09:19:20;1.33;;;0.50;;
8419;SDS011;4247;48.550;8.822;2023-03-31T09:21:55;1.40;;;0.20;;
8419;SDS011;4247;48.550;8.822;2023-03-31T09:24:27;7.00;;;0.50;;
8419;SDS011;4247;48.550;8.822;2023-03-31T09:26:59;0.47;;;0.40;;
8419;SDS011;4247;48.550;8.822;2023-03-31T09:29:28;1.77;;;0.53;;
8419;SDS011;4247;48.550;8.822;2023-03-31T09:32:09;1.00;;;0.23;;
8419;SDS011;4247;48.550;8.822;2023-03-31T09:34:40;1.17;;;0.40;;
8419;SDS011;4247;48.550;8.822;2023-03-31T09:37:07;0.60;;;0.50;;
8419;SDS011;4247;48.550;8.822;2023-03-31T09:39:37;3.20;;;1.60;;
8419;SDS011;4247;48.550;8.822;2023-03-31T09:42:04;0.67;;;0.20;;
8419;SDS011;4247;48.550;8.822;2023-03-31T09:44:33;1.23;;;0.43;;
8419;SDS011;4247;48.550;8.822;2023-03-31T09:47:03;2.67;;;0.50;;
8419;SDS011;4247;48.550;8.822;2023-03-31T09:49:32;3.30;;;0.50;;
8419;SDS011;4247;48.550;8.822;2023-03-31T09:52:02;1.60;;;0.40;;
8419;SDS011;4247;48.550;8.822;2023-03-31T09:54:37;4.73;;;0.60;;
8419;SDS011;4247;48.550;8.822;2023-03-31T09:57:13;5.90;;;0.40;;
8419;SDS011;4247;48.550;8.822;2023-03-31T09:59:41;7.87;;;0.53;;
8419;SDS011;4247;48.550;8.822;2023-03-31T10:02:28;0.87;;;0.40;;
8419;SDS011;4247;48.550;8.822;2023-03-31T10:05:02;1.00;;;0.67;;
8419;SDS011;4247;48.550;8.822;2023-03-31T10:07:29;2.60;;;0.47;;
8419;SDS011;4247;48.550;8.822;2023-03-31T10:09:59;5.10;;;0.60;;
8419;SDS011;4247;48.550;8.822;2023-03-31T10:12:27;3.60;;;0.70;;
8419;SDS011;4247;48.550;8.822;2023-03-31T10:15:01;7.20;;;0.70;;
8419;SDS011;4247;48.550;8.822;2023-03-31T10:17:41;1.50;;;0.47;;
8419;SDS011;4247;48.550;8.822;2023-03-31T10:20:16;3.07;;;0.40;;
8419;SDS011;4247;48.550;8.822;2023-03-31T10:22:46;5.20;;;0.50;;
8419;SDS011;4247;48.550;8.822;2023-03-31T10:25:15;1.00;;;0.83;;
8419;SDS011;4247;48.550;8.822;2023-03-31T10:27:44;4.13;;;0.90;;
8419;SDS011;4247;48.550;8.822;2023-03-31T10:30:16;3.33;;;0.60;;
8419;SDS011;4247;48.550;8.822;2023-03-31T10:32:45;5.03;;;0.40;;
8419;SDS011;4247;48.550;8.822;2023-03-31T10:35:15;1.17;;;0.40;;
8419;SDS011;4247;48.550;8.822;2023-03-31T10:37:48;2.47;;;0.60;;
8419;SDS011;4247;48.550;8.822;2023-03-31T10:40:22;3.70;;;0.50;;
8419;SDS011;4247;48.550;8.822;2023-03-31T10:42:57;1.00;;;0.40;;
8419;SDS011;4247;48.550;8.822;2023-03-31T10:45:27;4.57;;;0.47;;
8419;SDS011;4247;48.550;8.822;2023-03-31T10:47:56;6.17;;;0.50;;
8419;SDS011;4247;48.550;8.822;2023-03-31T10:50:25;4.73;;;0.63;;
8419;SDS011;4247;48.550;8.822;2023-03-31T10:52:54;4.73;;;0.40;;
8419;SDS011;4247;48.550;8.822;2023-03-31T10:55:29;4.33;;;1.27;;
8419;SDS011;4247;48.550;8.822;2023-03-31T10:58:00;2.00;;;0.40;;
8419;SDS011;4247;48.550;8.822;2023-03-31T11:00:39;6.20;;;0.60;;
8419;SDS011;4247;48.550;8.822;2023-03-31T11:03:29;6.30;;;0.50;;
8419;SDS011;4247;48.550;8.822;2023-03-31T11:06:12;4.13;;;0.60;;
8419;SDS011;4247;48.550;8.822;2023-03-31T11:08:47;4.73;;;0.97;;
8419;SDS011;4247;48.550;8.822;2023-03-31T11:11:26;7.03;;;0.90;;
8419;SDS011;4247;48.550;8.822;2023-03-31T11:14:06;1.73;;;0.27;;
8419;SDS011;4247;48.550;8.822;2023-03-31T11:16:43;1.37;;;0.93;;
8419;SDS011;4247;48.550;8.822;2023-03-31T11:19:21;3.43;;;0.13;;
8419;SDS011;4247;48.550;8.822;2023-03-31T11:21:58;2.37;;;0.30;;
8419;SDS011;4247;48.550;8.822;2023-03-31T11:24:34;1.90;;;0.10;;
8419;SDS011;4247;48.550;8.822;2023-03-31T11:27:18;1.23;;;0.40;;
8419;SDS011;4247;48.550;8.822;2023-03-31T11:29:57;5.10;;;0.10;;
8419;SDS011;4247;48.550;8.822;2023-03-31T11:32:31;0.10;;;0.10;;
8419;SDS011;4247;48.550;8.822;2023-03-31T11:35:13;0.73;;;0.10;;
8419;SDS011;4247;48.550;8.822;2023-03-31T11:37:52;0.00;;;0.00;;
8419;SDS011;4247;48.550;8.822;2023-03-31T11:40:32;0.07;;;0.00;;
8419;SDS011;4247;48.550;8.822;2023-03-31T11:43:09;0.10;;;0.03;;
8419;SDS011;4247;48.550;8.822;2023-03-31T11:45:40;0.23;;;0.23;;
8419;SDS011;4247;48.550;8.822;2023-03-31T11:48:14;0.10;;;0.10;;
8419;SDS011;4247;48.550;8.822;2023-03-31T11:50:46;0.10;;;0.10;;
8419;SDS011;4247;48.550;8.822;2023-03-31T11:53:15;0.00;;;0.00;;
8419;SDS011;4247;48.550;8.822;2023-03-31T11:55:45;1.23;;;0.10;;
8419;SDS011;4247;48.550;8.822;2023-03-31T11:58:17;0.20;;;0.20;;
8419;SDS011;4247;48.550;8.822;2023-03-31T12:00:50;0.30;;;0.10;;
8419;SDS011;4247;48.550;8.822;2023-03-31T12:03:21;0.13;;;0.13;;
8419;SDS011;4247;48.550;8.822;2023-03-31T12:05:55;0.60;;;0.20;;
8419;SDS011;4247;48.550;8.822;2023-03-31T12:08:25;0.20;;;0.20;;
8419;SDS011;4247;48.550;8.822;2023-03-31T12:10:59;0.33;;;0.27;;
8419;SDS011;4247;48.550;8.822;2023-03-31T12:13:34;1.27;;;0.47;;
8419;SDS011;4247;48.550;8.822;2023-03-31T12:16:08;1.67;;;0.67;;
8419;SDS011;4247;48.550;8.822;2023-03-31T12:18:38;0.73;;;0.20;;
8419;SDS011;4247;48.550;8.822;2023-03-31T12:21:10;3.90;;;0.37;;
8419;SDS011;4247;48.550;8.822;2023-03-31T12:23:38;0.60;;;0.30;;
8419;SDS011;4247;48.550;8.822;2023-03-31T12:26:10;0.33;;;0.20;;
8419;SDS011;4247;48.550;8.822;2023-03-31T12:28:52;1.03;;;0.40;;
8419;SDS011;4247;48.550;8.822;2023-03-31T12:31:22;1.33;;;0.63;;
8419;SDS011;4247;48.550;8.822;2023-03-31T12:33:52;1.00;;;0.37;;
8419;SDS011;4247;48.550;8.822;2023-03-31T12:36:26;3.40;;;0.50;;
8419;SDS011;4247;48.550;8.822;2023-03-31T12:39:09;2.73;;;0.50;;
8419;SDS011;4247;48.550;8.822;2023-03-31T12:41:58;1.80;;;0.57;;
8419;SDS011;4247;48.550;8.822;2023-03-31T12:44:39;7.90;;;0.60;;
8419;SDS011;4247;48.550;8.822;2023-03-31T12:47:26;0.77;;;0.30;;
8419;SDS011;4247;48.550;8.822;2023-03-31T12:50:07;2.20;;;0.50;;
8419;SDS011;4247;48.550;8.822;2023-03-31T12:53:03;3.43;;;0.40;;
8419;SDS011;4247;48.550;8.822;2023-03-31T12:55:36;3.13;;;0.50;;
8419;SDS011;4247;48.550;8.822;2023-03-31T12:58:35;3.23;;;0.30;;
8419;SDS011;4247;48.550;8.822;2023-03-31T13:01:13;3.20;;;0.40;;
8419;SDS011;4247;48.550;8.822;2023-03-31T13:03:46;0.80;;;0.30;;
8419;SDS011;4247;48.550;8.822;2023-03-31T13:09:38;1.30;;;0.30;;
8419;SDS011;4247;48.550;8.822;2023-03-31T13:12:12;2.73;;;0.50;;
8419;SDS011;4247;48.550;8.822;2023-03-31T13:14:41;1.50;;;0.30;;
8419;SDS011;4247;48.550;8.822;2023-03-31T13:17:12;5.87;;;0.30;;
8419;SDS011;4247;48.550;8.822;2023-03-31T13:19:46;7.63;;;1.57;;
8419;SDS011;4247;48.550;8.822;2023-03-31T13:22:26;3.17;;;0.43;;
8419;SDS011;4247;48.550;8.822;2023-03-31T13:28:09;7.43;;;0.40;;
8419;SDS011;4247;48.550;8.822;2023-03-31T13:30:54;1.80;;;0.70;;
8419;SDS011;4247;48.550;8.822;2023-03-31T13:33:27;0.40;;;0.23;;
8419;SDS011;4247;48.550;8.822;2023-03-31T13:39:33;0.37;;;0.20;;
8419;SDS011;4247;48.550;8.822;2023-03-31T13:42:15;1.30;;;0.20;;
8419;SDS011;4247;48.550;8.822;2023-03-31T13:45:02;0.10;;;0.10;;
8419;SDS011;4247;48.550;8.822;2023-03-31T13:47:51;0.10;;;0.10;;
8419;SDS011;4247;48.550;8.822;2023-03-31T13:50:38;0.10;;;0.10;;
8419;SDS011;4247;48.550;8.822;2023-03-31T13:53:28;0.33;;;0.10;;
8419;SDS011;4247;48.550;8.822;2023-03-31T13:56:14;4.70;;;0.03;;
8419;SDS011;4247;48.550;8.822;2023-03-31T14:01:55;0.47;;;0.10;;
8419;SDS011;4247;48.550;8.822;2023-03-31T14:04:42;0.20;;;0.20;;
8419;SDS011;4247;48.550;8.822;2023-03-31T14:07:27;0.13;;;0.10;;
8419;SDS011;4247;48.550;8.822;2023-03-31T14:09:57;0.30;;;0.20;;
8419;SDS011;4247;48.550;8.822;2023-03-31T14:12:29;0.00;;;0.00;;
8419;SDS011;4247;48.550;8.822;2023-03-31T14:14:56;0.07;;;0.07;;
8419;SDS011;4247;48.550;8.822;2023-03-31T14:17:25;0.10;;;0.10;;
8419;SDS011;4247;48.550;8.822;2023-03-31T14:19:57;0.63;;;0.10;;
8419;SDS011;4247;48.550;8.822;2023-03-31T14:22:44;0.83;;;0.20;;
8419;SDS011;4247;48.550;8.822;2023-03-31T14:25:31;0.47;;;0.20;;
8419;SDS011;4247;48.550;8.822;2023-03-31T14:28:12;0.20;;;0.20;;
8419;SDS011;4247;48.550;8.822;2023-03-31T14:30:47;0.30;;;0.20;;
8419;SDS011;4247;48.550;8.822;2023-03-31T14:33:25;0.93;;;0.10;;
8419;SDS011;4247;48.550;8.822;2023-03-31T14:36:00;4.00;;;0.30;;
8419;SDS011;4247;48.550;8.822;2023-03-31T14:38:33;1.40;;;0.40;;
8419;SDS011;4247;48.550;8.822;2023-03-31T14:41:01;0.17;;;0.17;;
8419;SDS011;4247;48.550;8.822;2023-03-31T14:43:28;0.03;;;0.03;;
8419;SDS011;4247;48.550;8.822;2023-03-31T14:45:58;0.47;;;0.20;;
8419;SDS011;4247;48.550;8.822;2023-03-31T14:48:26;2.30;;;0.20;;
8419;SDS011;4247;48.550;8.822;2023-03-31T14:50:55;0.83;;;0.20;;
8419;SDS011;4247;48.550;8.822;2023-03-31T14:53:24;0.60;;;0.40;;
8419;SDS011;4247;48.550;8.822;2023-03-31T14:55:54;2.60;;;0.30;;
8419;SDS011;4247;48.550;8.822;2023-03-31T14:58:26;1.90;;;0.20;;
8419;SDS011;4247;48.550;8.822;2023-03-31T15:00:58;6.40;;;0.37;;
8419;SDS011;4247;48.550;8.822;2023-03-31T15:03:25;1.53;;;0.20;;
8419;SDS011;4247;48.550;8.822;2023-03-31T15:05:54;0.53;;;0.20;;
8419;SDS011;4247;48.550;8.822;2023-03-31T15:08:23;0.50;;;0.20;;
8419;SDS011;4247;48.550;8.822;2023-03-31T15:10:51;3.83;;;0.47;;
8419;SDS011;4247;48.550;8.822;2023-03-31T15:13:23;2.10;;;0.10;;
8419;SDS011;4247;48.550;8.822;2023-03-31T15:15:55;2.07;;;0.33;;
8419;SDS011;4247;48.550;8.822;2023-03-31T15:18:24;0.30;;;0.10;;
8419;SDS011;4247;48.550;8.822;2023-03-31T15:20:52;0.30;;;0.20;;
8419;SDS011;4247;48.550;8.822;2023-03-31T15:23:19;0.40;;;0.40;;
8419;SDS011;4247;48.550;8.822;2023-03-31T15:25:50;2.40;;;0.10;;
8419;SDS011;4247;48.550;8.822;2023-03-31T15:28:22;0.37;;;0.20;;
8419;SDS011;4247;48.550;8.822;2023-03-31T15:30:51;0.93;;;0.27;;
8419;SDS011;4247;48.550;8.822;2023-03-31T15:33:19;1.90;;;0.30;;
8419;SDS011;4247;48.550;8.822;2023-03-31T15:35:49;2.77;;;0.60;;
8419;SDS011;4247;48.550;8.822;2023-03-31T15:38:16;0.30;;;0.20;;
8419;SDS011;4247;48.550;8.822;2023-03-31T15:40:51;2.57;;;0.20;;
8419;SDS011;4247;48.550;8.822;2023-03-31T15:43:26;0.97;;;0.40;;
8419;SDS011;4247;48.550;8.822;2023-03-31T15:45:54;2.47;;;0.43;;
8419;SDS011;4247;48.550;8.822;2023-03-31T15:48:22;2.37;;;0.40;;
8419;SDS011;4247;48.550;8.822;2023-03-31T15:51:00;0.40;;;0.23;;
8419;SDS011;4247;48.550;8.822;2023-03-31T15:53:28;2.80;;;0.40;;
8419;SDS011;4247;48.550;8.822;2023-03-31T15:55:58;3.80;;;0.60;;
8419;SDS011;4247;48.550;8.822;2023-03-31T16:01:20;1.80;;;0.30;;
8419;SDS011;4247;48.550;8.822;2023-03-31T16:03:51;4.10;;;0.50;;
8419;SDS011;4247;48.550;8.822;2023-03-31T16:06:19;0.63;;;0.17;;